createdAt,value
2022-08-26T00:01:56.223Z,96719.13
2022-08-26T00:04:25.176Z,96720.25
2022-08-26T00:06:55.892Z,96722.53
2022-08-26T00:09:24.727Z,96718.22
2022-08-26T00:11:53.117Z,96724.25
2022-08-26T00:14:21.924Z,96727.03
2022-08-26T00:16:49.436Z,96726.22
2022-08-26T00:19:18.096Z,96724.84
2022-08-26T00:21:45.746Z,96728.44
2022-08-26T00:24:16.209Z,96735.22
2022-08-26T00:26:43.430Z,96737.66
2022-08-26T00:29:10.539Z,96724.63
2022-08-26T00:31:38.219Z,96719.22
2022-08-26T00:34:07.112Z,96724.47
2022-08-26T00:36:37.091Z,96719.38
2022-08-26T00:39:04.551Z,96732.13
2022-08-26T00:41:33.296Z,96719.13
2022-08-26T00:44:01.757Z,96720.94
2022-08-26T00:46:34.399Z,96714.00
2022-08-26T00:49:12.134Z,96718.31
2022-08-26T00:51:46.380Z,96716.50
2022-08-26T00:54:15.532Z,96722.91
2022-08-26T00:56:50.610Z,96715.00
2022-08-26T00:59:18.738Z,96723.88
2022-08-26T01:01:46.363Z,96732.72
2022-08-26T01:04:19.851Z,96725.06
2022-08-26T01:06:49.582Z,96726.88
2022-08-26T01:09:18.600Z,96721.31
2022-08-26T01:11:49.312Z,96720.34
2022-08-26T01:14:20.231Z,96716.03
2022-08-26T01:16:49.997Z,96726.28
2022-08-26T01:19:25.269Z,96713.56
2022-08-26T01:21:58.465Z,96714.69
2022-08-26T01:24:29.263Z,96717.16
2022-08-26T01:26:59.886Z,96716.66
2022-08-26T01:29:29.759Z,96724.69
2022-08-26T01:31:59.236Z,96722.34
2022-08-26T01:34:30.387Z,96721.56
2022-08-26T01:37:03.341Z,96721.88
2022-08-26T01:39:35.812Z,96714.56
2022-08-26T01:42:05.960Z,96720.13
2022-08-26T01:44:42.290Z,96713.53
2022-08-26T01:47:10.196Z,96722.38
2022-08-26T01:49:39.085Z,96716.97
2022-08-26T01:52:10.786Z,96721.78
2022-08-26T01:54:42.542Z,96726.09
2022-08-26T01:57:16.023Z,96721.19
2022-08-26T01:59:43.381Z,96730.75
2022-08-26T02:02:10.829Z,96729.91
2022-08-26T02:04:45.933Z,96721.50
2022-08-26T02:07:14.668Z,96726.22
2022-08-26T02:09:48.624Z,96727.34
2022-08-26T02:12:19.106Z,96722.22
2022-08-26T02:14:52.287Z,96720.56
2022-08-26T02:17:23.456Z,96724.19
2022-08-26T02:19:50.861Z,96721.56
2022-08-26T02:22:20.776Z,96723.34
2022-08-26T02:24:51.726Z,96711.59
2022-08-26T02:27:23.053Z,96717.44
2022-08-26T02:29:56.617Z,96717.16
2022-08-26T02:32:24.489Z,96709.72
2022-08-26T02:34:51.724Z,96706.28
2022-08-26T02:37:18.772Z,96703.78
2022-08-26T02:39:51.926Z,96701.31
2022-08-26T02:42:20.004Z,96701.16
2022-08-26T02:44:47.183Z,96701.16
2022-08-26T02:47:16.448Z,96706.41
2022-08-26T02:49:47.261Z,96700.50
2022-08-26T02:52:15.522Z,96706.84
2022-08-26T02:54:42.957Z,96700.34
2022-08-26T02:57:14.026Z,96705.59
2022-08-26T02:59:41.189Z,96702.03
2022-08-26T03:02:08.481Z,96705.78
2022-08-26T03:04:36.004Z,96702.59
2022-08-26T03:07:03.559Z,96700.84
2022-08-26T03:09:31.346Z,96696.16
2022-08-26T03:11:59.481Z,96699.31
2022-08-26T03:14:29.719Z,96699.16
2022-08-26T03:16:57.119Z,96696.53
2022-08-26T03:19:26.545Z,96696.25
2022-08-26T03:21:57.923Z,96700.84
2022-08-26T03:24:25.788Z,96693.47
2022-08-26T03:26:53.300Z,96689.31
2022-08-26T03:29:21.283Z,96684.91
2022-08-26T03:31:49.926Z,96692.94
2022-08-26T03:34:18.034Z,96694.72
2022-08-26T03:36:46.545Z,96691.44
2022-08-26T03:39:14.728Z,96696.00
2022-08-26T03:41:42.291Z,96687.41
2022-08-26T03:44:09.569Z,96690.91
2022-08-26T03:46:37.648Z,96691.06
2022-08-26T03:49:09.921Z,96691.06
2022-08-26T03:51:39.022Z,96696.88
2022-08-26T03:54:08.230Z,96696.03
2022-08-26T03:56:36.745Z,96694.09
2022-08-26T03:59:04.987Z,96701.13
2022-08-26T04:01:35.738Z,96697.69
2022-08-26T04:04:03.720Z,96684.69
2022-08-26T04:06:36.819Z,96691.63
2022-08-26T04:09:06.429Z,96691.91
2022-08-26T04:11:35.525Z,96693.16
2022-08-26T04:14:09.434Z,96686.94
2022-08-26T04:16:37.868Z,96690.53
2022-08-26T04:19:06.766Z,96693.59
2022-08-26T04:21:36.805Z,96696.50
2022-08-26T04:24:04.308Z,96694.69
2022-08-26T04:26:33.489Z,96690.28
2022-08-26T04:29:01.540Z,96699.13
2022-08-26T04:31:30.847Z,96704.22
2022-08-26T04:33:59.278Z,96708.53
2022-08-26T04:36:27.391Z,96699.38
2022-08-26T04:38:56.105Z,96693.72
2022-08-26T04:41:23.690Z,96695.53
2022-08-26T04:43:52.137Z,96704.91
2022-08-26T04:46:23.889Z,96706.28
2022-08-26T04:48:52.196Z,96701.75
2022-08-26T04:51:20.201Z,96704.22
2022-08-26T04:53:47.688Z,96695.69
2022-08-26T04:56:16.989Z,96699.94
2022-08-26T04:58:44.329Z,96700.22
2022-08-26T05:01:11.684Z,96705.19
2022-08-26T05:03:39.106Z,96699.78
2022-08-26T05:06:08.488Z,96693.97
2022-08-26T05:08:37.286Z,96692.56
2022-08-26T05:11:06.538Z,96697.25
2022-08-26T05:13:38.566Z,96699.59
2022-08-26T05:16:09.841Z,96700.84
2022-08-26T05:18:40.496Z,96706.47
2022-08-26T05:21:08.405Z,96707.66
2022-08-26T05:23:36.507Z,96713.50
2022-08-26T05:26:08.868Z,96718.97
2022-08-26T05:28:38.885Z,96708.16
2022-08-26T05:31:15.901Z,96712.19
2022-08-26T05:33:46.088Z,96726.53
2022-08-26T05:36:16.858Z,96699.94
2022-08-26T05:38:46.502Z,96709.91
2022-08-26T05:41:17.919Z,96712.09
2022-08-26T05:43:47.354Z,96708.03
2022-08-26T05:46:16.198Z,96708.41
2022-08-26T05:48:44.380Z,96706.19
2022-08-26T05:51:12.879Z,96708.38
2022-08-26T05:53:43.946Z,96706.13
2022-08-26T05:56:23.227Z,96709.81
2022-08-26T05:58:52.057Z,96705.88
2022-08-26T06:01:21.605Z,96705.28
2022-08-26T06:03:52.551Z,96702.22
2022-08-26T06:06:27.410Z,96694.97
2022-08-26T06:08:57.115Z,96706.56
2022-08-26T06:11:26.106Z,96698.06
2022-08-26T06:14:01.208Z,96696.50
2022-08-26T06:16:31.528Z,96704.44
2022-08-26T06:18:58.494Z,96697.44
2022-08-26T06:21:30.567Z,96699.34
2022-08-26T06:23:59.877Z,96701.22
2022-08-26T06:26:28.467Z,96700.44
2022-08-26T06:28:57.691Z,96703.28
2022-08-26T06:31:25.693Z,96701.13
2022-08-26T06:33:54.069Z,96699.25
2022-08-26T06:36:23.845Z,96684.59
2022-08-26T06:38:53.929Z,96689.91
2022-08-26T06:41:22.410Z,96682.84
2022-08-26T06:43:50.667Z,96689.97
2022-08-26T06:46:22.007Z,96686.41
2022-08-26T06:48:49.768Z,96687.75
2022-08-26T06:51:20.812Z,96685.13
2022-08-26T06:53:53.483Z,96684.47
2022-08-26T06:56:22.886Z,96691.47
2022-08-26T06:58:52.694Z,96697.78
2022-08-26T07:01:24.994Z,96684.09
2022-08-26T07:03:57.121Z,96697.78
2022-08-26T07:06:25.157Z,96689.38
2022-08-26T07:09:00.017Z,96689.56
2022-08-26T07:11:27.914Z,96683.97
2022-08-26T07:13:55.052Z,96690.56
2022-08-26T07:16:24.405Z,96686.13
2022-08-26T07:18:52.678Z,96681.53
2022-08-26T07:21:20.867Z,96682.16
2022-08-26T07:23:49.627Z,96675.88
2022-08-26T07:26:19.669Z,96662.22
2022-08-26T07:28:48.647Z,96676.72
2022-08-26T07:31:16.995Z,96671.94
2022-08-26T07:33:46.701Z,96681.81
2022-08-26T07:36:14.830Z,96673.91
2022-08-26T07:38:43.119Z,96677.34
2022-08-26T07:41:11.486Z,96671.88
2022-08-26T07:43:39.081Z,96672.34
2022-08-26T07:46:07.502Z,96675.78
2022-08-26T07:48:35.889Z,96674.13
2022-08-26T07:51:05.158Z,96670.97
2022-08-26T07:53:32.387Z,96670.44
2022-08-26T07:56:01.396Z,96670.09
2022-08-26T07:58:28.665Z,96669.22
2022-08-26T08:00:56.190Z,96673.13
2022-08-26T08:03:23.303Z,96664.34
2022-08-26T08:05:50.400Z,96662.47
2022-08-26T08:08:27.639Z,96662.94
2022-08-26T08:10:57.117Z,96662.75
2022-08-26T08:13:25.103Z,96664.41
2022-08-26T08:15:52.473Z,96666.38
2022-08-26T08:18:20.556Z,96662.66
2022-08-26T08:20:59.201Z,96659.13
2022-08-26T08:23:33.678Z,96661.53
2022-08-26T08:26:02.247Z,96653.03
2022-08-26T08:28:29.700Z,96652.66
2022-08-26T08:30:57.348Z,96650.78
2022-08-26T08:33:25.224Z,96650.69
2022-08-26T08:35:52.780Z,96651.28
2022-08-26T08:38:20.289Z,96661.44
2022-08-26T08:40:50.026Z,96652.41
2022-08-26T08:43:30.718Z,96651.31
2022-08-26T08:46:04.356Z,96648.19
2022-08-26T08:48:35.949Z,96646.50
2022-08-26T08:51:10.273Z,96644.84
2022-08-26T08:53:39.363Z,96646.69
2022-08-26T08:56:16.735Z,96643.91
2022-08-26T08:58:52.628Z,96649.88
2022-08-26T09:01:37.501Z,96647.56
2022-08-26T09:04:33.528Z,96649.75
2022-08-26T09:07:03.120Z,96647.63
2022-08-26T09:09:36.487Z,96645.88
2022-08-26T09:12:11.547Z,96642.09
2022-08-26T09:14:38.540Z,96637.50
2022-08-26T09:17:23.378Z,96647.53
2022-08-26T09:19:54.095Z,96641.50
2022-08-26T09:22:32.866Z,96651.94
2022-08-26T09:25:02.255Z,96650.81
2022-08-26T09:27:50.331Z,96642.53
2022-08-26T09:30:25.237Z,96640.94
2022-08-26T09:33:00.334Z,96644.94
2022-08-26T09:35:31.001Z,96640.75
2022-08-26T09:37:59.402Z,96632.44
2022-08-26T09:40:30.979Z,96630.63
2022-08-26T09:43:22.046Z,96637.81
2022-08-26T09:45:55.894Z,96642.75
2022-08-26T09:48:35.463Z,96631.00
2022-08-26T09:51:04.975Z,96641.69
2022-08-26T09:53:35.007Z,96633.69
2022-08-26T09:56:17.191Z,96636.97
2022-08-26T09:58:48.510Z,96628.38
2022-08-26T10:01:32.216Z,96627.94
2022-08-26T10:04:08.810Z,96623.47
2022-08-26T10:06:40.607Z,96623.94
2022-08-26T10:09:12.079Z,96625.63
2022-08-26T10:11:43.887Z,96620.63
2022-08-26T10:14:18.161Z,96612.28
2022-08-26T10:16:51.728Z,96626.84
2022-08-26T10:19:25.247Z,96618.09
2022-08-26T10:22:00.414Z,96616.03
2022-08-26T10:24:32.168Z,96614.22
2022-08-26T10:27:03.238Z,96612.41
2022-08-26T10:29:38.137Z,96611.19
2022-08-26T10:32:14.270Z,96603.03
2022-08-26T10:34:41.897Z,96601.81
2022-08-26T10:37:16.187Z,96594.47
2022-08-26T10:39:53.054Z,96598.38
2022-08-26T10:42:32.627Z,96597.34
2022-08-26T10:45:06.139Z,96589.97
2022-08-26T10:47:41.786Z,96586.28
2022-08-26T10:50:10.767Z,96590.44
2022-08-26T10:52:53.142Z,96583.88
2022-08-26T10:55:29.561Z,96588.38
2022-08-26T10:58:15.755Z,96584.25
2022-08-26T11:01:10.570Z,96584.06
2022-08-26T11:03:49.940Z,96573.59
2022-08-26T11:06:26.115Z,96570.53
2022-08-26T11:08:54.649Z,96570.31
2022-08-26T11:11:43.927Z,96571.13
2022-08-26T11:14:28.953Z,96577.88
2022-08-26T11:17:00.732Z,96569.66
2022-08-26T11:20:02.232Z,96575.44
2022-08-26T11:22:34.127Z,96571.50
2022-08-26T11:25:07.999Z,96558.34
2022-08-26T11:28:03.430Z,96564.06
2022-08-26T11:30:43.068Z,96560.34
2022-08-26T11:33:51.085Z,96560.09
2022-08-26T11:36:40.754Z,96554.50
2022-08-26T11:39:19.257Z,96551.41
2022-08-26T11:41:48.409Z,96541.31
2022-08-26T11:44:22.772Z,96549.09
2022-08-26T11:46:56.778Z,96549.25
2022-08-26T11:49:26.208Z,96540.38
2022-08-26T11:51:55.749Z,96537.06
2022-08-26T11:54:35.223Z,96546.91
2022-08-26T11:57:09.516Z,96539.66
2022-08-26T11:59:41.948Z,96538.97
2022-08-26T12:02:15.434Z,96534.25
2022-08-26T12:04:48.494Z,96539.75
2022-08-26T12:07:16.832Z,96531.97
2022-08-26T12:09:55.438Z,96528.03
2022-08-26T12:12:31.727Z,96528.41
2022-08-26T12:15:12.217Z,96525.47
2022-08-26T12:17:39.833Z,96522.59
2022-08-26T12:20:20.123Z,96519.06
2022-08-26T12:22:48.259Z,96511.22
2022-08-26T12:25:24.008Z,96499.22
2022-08-26T12:27:53.666Z,96502.16
2022-08-26T12:30:23.799Z,96514.22
2022-08-26T12:32:57.514Z,96503.91
2022-08-26T12:35:27.175Z,96500.91
2022-08-26T12:37:55.578Z,96495.13
2022-08-26T12:40:32.718Z,96486.81
2022-08-26T12:43:01.400Z,96486.91
2022-08-26T12:45:30.432Z,96486.63
2022-08-26T12:48:00.609Z,96484.03
2022-08-26T12:50:31.571Z,96497.75
2022-08-26T12:53:01.915Z,96499.00
2022-08-26T12:55:40.007Z,96480.00
2022-08-26T12:58:28.704Z,96488.03
2022-08-26T13:00:58.051Z,96479.13
2022-08-26T13:03:41.221Z,96473.44
2022-08-26T13:06:16.187Z,96472.63
2022-08-26T13:08:44.947Z,96472.41
2022-08-26T13:11:15.537Z,96468.22
2022-08-26T13:13:43.066Z,96461.84
2022-08-26T13:16:10.325Z,96451.13
2022-08-26T13:18:37.588Z,96464.38
2022-08-26T13:21:13.368Z,96462.34
2022-08-26T13:23:42.594Z,96447.69
2022-08-26T13:26:09.994Z,96449.84
2022-08-26T13:28:37.356Z,96440.97
2022-08-26T13:31:05.173Z,96439.69
2022-08-26T13:33:33.026Z,96442.38
2022-08-26T13:36:01.058Z,96438.44
2022-08-26T13:38:33.200Z,96436.63
2022-08-26T13:41:01.913Z,96434.91
2022-08-26T13:43:29.461Z,96434.44
2022-08-26T13:45:57.226Z,96431.19
2022-08-26T13:48:24.533Z,96416.94
2022-08-26T13:50:52.056Z,96421.28
2022-08-26T13:53:19.182Z,96415.91
2022-08-26T13:55:47.936Z,96421.63
2022-08-26T13:58:15.488Z,96421.50
2022-08-26T14:00:42.667Z,96421.72
2022-08-26T14:03:13.369Z,96412.50
2022-08-26T14:05:41.255Z,96411.09
2022-08-26T14:08:09.020Z,96412.50
2022-08-26T14:10:36.591Z,96407.66
2022-08-26T14:13:05.454Z,96407.31
2022-08-26T14:15:36.139Z,96411.75
2022-08-26T14:18:05.753Z,96399.75
2022-08-26T14:20:36.475Z,96407.44
2022-08-26T14:23:20.645Z,96405.22
2022-08-26T14:25:48.033Z,96397.19
2022-08-26T14:28:17.306Z,96404.41
2022-08-26T14:30:50.503Z,96404.31
2022-08-26T14:33:26.893Z,96404.41
2022-08-26T14:35:54.767Z,96386.69
2022-08-26T14:38:22.173Z,96394.75
2022-08-26T14:40:49.453Z,96387.63
2022-08-26T14:43:20.964Z,96387.53
2022-08-26T14:45:48.639Z,96388.22
2022-08-26T14:48:16.502Z,96385.91
2022-08-26T14:50:44.856Z,96384.63
2022-08-26T14:53:12.583Z,96389.50
2022-08-26T14:55:42.677Z,96383.91
2022-08-26T14:58:10.423Z,96383.22
2022-08-26T15:00:40.166Z,96384.63
2022-08-26T15:03:08.497Z,96382.41
2022-08-26T15:05:36.474Z,96382.06
2022-08-26T15:08:04.619Z,96373.78
2022-08-26T15:10:32.018Z,96372.75
2022-08-26T15:12:59.154Z,96372.84
2022-08-26T15:15:26.948Z,96367.72
2022-08-26T15:17:58.206Z,96360.13
2022-08-26T15:20:25.875Z,96361.22
2022-08-26T15:22:53.648Z,96359.56
2022-08-26T15:25:21.457Z,96360.16
2022-08-26T15:27:49.068Z,96362.81
2022-08-26T15:30:16.488Z,96345.34
2022-08-26T15:32:44.034Z,96353.50
2022-08-26T15:35:13.447Z,96346.84
2022-08-26T15:37:41.054Z,96349.28
2022-08-26T15:40:10.462Z,96344.16
2022-08-26T15:42:38.165Z,96349.06
2022-08-26T15:45:06.875Z,96342.56
2022-08-26T15:47:38.102Z,96344.41
2022-08-26T15:50:23.996Z,96343.81
2022-08-26T15:52:52.132Z,96349.97
2022-08-26T15:55:20.201Z,96345.19
2022-08-26T15:57:51.248Z,96337.47
2022-08-26T16:00:20.330Z,96344.09
2022-08-26T16:02:47.843Z,96348.63
2022-08-26T16:05:15.545Z,96337.81
2022-08-26T16:07:44.845Z,96341.97
2022-08-26T16:10:11.997Z,96336.84
2022-08-26T16:12:39.554Z,96334.03
2022-08-26T16:15:08.375Z,96336.22
2022-08-26T16:17:36.166Z,96342.19
2022-08-26T16:20:04.971Z,96334.44
2022-08-26T16:22:33.306Z,96338.19
2022-08-26T16:25:03.265Z,96334.28
2022-08-26T16:27:31.067Z,96334.53
2022-08-26T16:29:58.584Z,96335.56
2022-08-26T16:32:30.669Z,96335.78
2022-08-26T16:35:00.637Z,96334.63
2022-08-26T16:37:27.896Z,96344.97
2022-08-26T16:39:55.828Z,96340.88
2022-08-26T16:42:24.865Z,96340.97
2022-08-26T16:44:52.016Z,96339.19
2022-08-26T16:47:19.869Z,96338.22
2022-08-26T16:49:47.701Z,96346.13
2022-08-26T16:52:15.866Z,96340.03
2022-08-26T16:54:45.431Z,96338.47
2022-08-26T16:57:13.777Z,96341.44
2022-08-26T16:59:42.338Z,96340.88
2022-08-26T17:02:09.448Z,96347.19
2022-08-26T17:04:36.788Z,96350.66
2022-08-26T17:07:04.524Z,96349.00
2022-08-26T17:09:32.399Z,96351.16
2022-08-26T17:11:59.435Z,96349.22
2022-08-26T17:14:27.063Z,96341.34
2022-08-26T17:16:55.886Z,96336.66
2022-08-26T17:19:23.651Z,96332.47
2022-08-26T17:21:50.721Z,96340.13
2022-08-26T17:24:18.430Z,96340.81
2022-08-26T17:26:48.412Z,96343.34
2022-08-26T17:29:18.225Z,96349.34
2022-08-26T17:31:45.283Z,96348.34
2022-08-26T17:34:14.860Z,96350.63
2022-08-26T17:36:41.960Z,96346.75
2022-08-26T17:39:09.673Z,96348.38
2022-08-26T17:41:37.106Z,96346.97
2022-08-26T17:44:05.593Z,96354.16
2022-08-26T17:46:36.444Z,96360.09
2022-08-26T17:49:06.347Z,96355.75
2022-08-26T17:51:35.272Z,96359.84
2022-08-26T17:54:03.167Z,96359.03
2022-08-26T17:56:30.241Z,96363.94
2022-08-26T17:59:02.398Z,96359.41
2022-08-26T18:01:31.454Z,96361.44
2022-08-26T18:04:00.635Z,96365.31
2022-08-26T18:06:28.744Z,96368.38
2022-08-26T18:08:58.079Z,96371.22
2022-08-26T18:11:25.169Z,96366.25
2022-08-26T18:13:52.389Z,96371.59
2022-08-26T18:16:21.008Z,96367.69
2022-08-26T18:18:50.295Z,96373.78
2022-08-26T18:21:21.478Z,96370.66
2022-08-26T18:23:50.963Z,96381.66
2022-08-26T18:26:22.894Z,96388.59
2022-08-26T18:28:51.053Z,96389.75
2022-08-26T18:31:19.066Z,96395.25
2022-08-26T18:33:46.803Z,96392.13
2022-08-26T18:36:18.708Z,96391.88
2022-08-26T18:38:46.498Z,96386.16
2022-08-26T18:41:14.727Z,96395.28
2022-08-26T18:43:44.022Z,96398.31
2022-08-26T18:46:11.428Z,96398.28
2022-08-26T18:48:40.493Z,96401.91
2022-08-26T18:51:08.643Z,96404.25
2022-08-26T18:53:40.003Z,96402.38
2022-08-26T18:56:07.867Z,96409.91
2022-08-26T18:58:35.651Z,96397.19
2022-08-26T19:01:05.153Z,96400.19
2022-08-26T19:03:33.374Z,96416.63
2022-08-26T19:06:00.417Z,96398.53
2022-08-26T19:08:27.848Z,96413.78
2022-08-26T19:10:55.223Z,96414.00
2022-08-26T19:13:23.449Z,96414.38
2022-08-26T19:15:50.680Z,96422.25
2022-08-26T19:18:20.901Z,96419.06
2022-08-26T19:20:48.186Z,96431.06
2022-08-26T19:23:34.030Z,96421.84
2022-08-26T19:26:06.123Z,96423.22
2022-08-26T19:28:34.699Z,96425.44
2022-08-26T19:31:02.782Z,96431.28
2022-08-26T19:33:32.499Z,96431.03
2022-08-26T19:36:02.748Z,96436.53
2022-08-26T19:38:32.862Z,96436.03
2022-08-26T19:41:02.366Z,96454.16
2022-08-26T19:43:32.181Z,96440.47
2022-08-26T19:46:00.041Z,96442.44
2022-08-26T19:48:27.776Z,96440.34
2022-08-26T19:50:57.451Z,96446.00
2022-08-26T19:53:25.401Z,96456.34
2022-08-26T19:55:53.873Z,96432.94
2022-08-26T19:58:21.422Z,96442.16
2022-08-26T20:00:50.772Z,96438.41
2022-08-26T20:03:18.448Z,96439.22
2022-08-26T20:05:46.585Z,96430.81
2022-08-26T20:08:21.951Z,96428.53
2022-08-26T20:10:51.683Z,96425.44
2022-08-26T20:13:19.259Z,96432.53
2022-08-26T20:15:46.949Z,96432.09
2022-08-26T20:18:15.352Z,96425.91
2022-08-26T20:20:43.862Z,96431.81
2022-08-26T20:23:12.217Z,96425.06
2022-08-26T20:25:41.761Z,96426.44
2022-08-26T20:28:09.322Z,96426.31
2022-08-26T20:30:37.341Z,96429.22
2022-08-26T20:33:05.283Z,96423.84
2022-08-26T20:35:32.776Z,96421.19
2022-08-26T20:38:00.282Z,96424.81
2022-08-26T20:40:27.945Z,96424.66
2022-08-26T20:42:57.752Z,96418.19
2022-08-26T20:45:25.107Z,96427.91
2022-08-26T20:47:52.743Z,96434.09
2022-08-26T20:50:20.174Z,96436.28
2022-08-26T20:52:47.290Z,96427.38
2022-08-26T20:55:14.572Z,96421.63
2022-08-26T20:57:42.259Z,96434.41
2022-08-26T21:00:12.988Z,96430.09
2022-08-26T21:02:41.972Z,96433.28
2022-08-26T21:05:10.122Z,96433.44
2022-08-26T21:07:37.346Z,96428.69
2022-08-26T21:10:04.967Z,96431.41
2022-08-26T21:12:32.635Z,96429.81
2022-08-26T21:14:59.951Z,96428.03
2022-08-26T21:17:29.481Z,96432.00
2022-08-26T21:19:56.792Z,96429.19
2022-08-26T21:22:24.038Z,96423.28
2022-08-26T21:24:51.295Z,96434.72
2022-08-26T21:27:26.387Z,96439.03
2022-08-26T21:29:54.482Z,96431.28
2022-08-26T21:32:21.701Z,96436.75
2022-08-26T21:34:53.669Z,96422.91
2022-08-26T21:37:21.172Z,96439.56
2022-08-26T21:39:48.722Z,96434.44
2022-08-26T21:42:16.564Z,96433.63
2022-08-26T21:44:44.008Z,96441.25
2022-08-26T21:47:14.735Z,96431.50
2022-08-26T21:49:41.870Z,96444.06
2022-08-26T21:52:11.698Z,96441.78
2022-08-26T21:54:39.232Z,96442.13
2022-08-26T21:57:07.068Z,96427.25
2022-08-26T21:59:34.242Z,96436.19
2022-08-26T22:02:02.481Z,96430.47
2022-08-26T22:04:31.846Z,96432.78
2022-08-26T22:06:59.164Z,96424.22
2022-08-26T22:09:30.717Z,96430.47
2022-08-26T22:11:59.015Z,96434.13
2022-08-26T22:14:30.453Z,96423.56
2022-08-26T22:17:00.319Z,96416.00
2022-08-26T22:19:28.506Z,96416.00
2022-08-26T22:21:56.765Z,96416.97
2022-08-26T22:24:26.125Z,96422.44
2022-08-26T22:26:55.871Z,96424.91
2022-08-26T22:29:23.694Z,96424.41
2022-08-26T22:31:52.306Z,96428.22
2022-08-26T22:34:19.953Z,96417.00
2022-08-26T22:36:49.428Z,96417.53
2022-08-26T22:39:19.848Z,96421.66
2022-08-26T22:41:48.046Z,96423.66
2022-08-26T22:44:20.004Z,96417.53
2022-08-26T22:46:49.344Z,96419.19
2022-08-26T22:49:17.607Z,96428.91
2022-08-26T22:51:46.451Z,96414.88
2022-08-26T22:54:15.216Z,96421.66
2022-08-26T22:56:44.342Z,96420.50
2022-08-26T22:59:12.671Z,96420.16
2022-08-26T23:01:43.532Z,96417.72
2022-08-26T23:04:11.762Z,96413.28
2022-08-26T23:06:42.092Z,96414.94
2022-08-26T23:09:10.770Z,96417.75
2022-08-26T23:11:38.724Z,96403.06
2022-08-26T23:14:09.479Z,96404.22
2022-08-26T23:16:39.563Z,96408.66
2022-08-26T23:19:11.051Z,96410.50
2022-08-26T23:21:38.714Z,96405.22
2022-08-26T23:24:07.167Z,96406.03
2022-08-26T23:26:35.043Z,96408.84
2022-08-26T23:29:02.946Z,96400.78
2022-08-26T23:31:30.367Z,96404.22
2022-08-26T23:33:57.910Z,96399.28
2022-08-26T23:36:27.845Z,96409.81
2022-08-26T23:38:58.164Z,96398.97
2022-08-26T23:41:25.318Z,96404.56
2022-08-26T23:43:52.827Z,96407.22
2022-08-26T23:46:20.707Z,96399.47
2022-08-26T23:48:48.586Z,96402.91
2022-08-26T23:51:16.334Z,96402.09
2022-08-26T23:53:46.418Z,96407.22
2022-08-26T23:56:15.501Z,96398.78
2022-08-26T23:58:43.409Z,96396.16
